sensor_id;sensor_type;location;lat;lon;timestamp;P1;durP1;ratioP1;P2;durP2;ratioP2
70467;SDS011;57934;51.532;7.684;2023-10-09T00:00:16;35.20;;;17.38;;
70467;SDS011;57934;51.532;7.684;2023-10-09T00:03:00;31.45;;;16.63;;
70467;SDS011;57934;51.532;7.684;2023-10-09T00:05:30;38.88;;;16.92;;
70467;SDS011;57934;51.532;7.684;2023-10-09T00:08:15;40.05;;;16.83;;
70467;SDS011;57934;51.532;7.684;2023-10-09T00:10:48;33.03;;;16.88;;
70467;SDS011;57934;51.532;7.684;2023-10-09T00:13:19;33.80;;;17.20;;
70467;SDS011;57934;51.532;7.684;2023-10-09T00:15:48;33.95;;;16.45;;
70467;SDS011;57934;51.532;7.684;2023-10-09T00:18:19;33.10;;;16.65;;
70467;SDS011;57934;51.532;7.684;2023-10-09T00:20:54;36.17;;;16.65;;
70467;SDS011;57934;51.532;7.684;2023-10-09T00:23:29;33.03;;;16.05;;
70467;SDS011;57934;51.532;7.684;2023-10-09T00:25:57;32.78;;;16.48;;
70467;SDS011;57934;51.532;7.684;2023-10-09T00:28:35;30.20;;;15.02;;
70467;SDS011;57934;51.532;7.684;2023-10-09T00:31:05;30.80;;;14.93;;
70467;SDS011;57934;51.532;7.684;2023-10-09T00:33:33;33.17;;;17.48;;
70467;SDS011;57934;51.532;7.684;2023-10-09T00:36:03;28.63;;;15.25;;
70467;SDS011;57934;51.532;7.684;2023-10-09T00:38:37;33.30;;;17.10;;
70467;SDS011;57934;51.532;7.684;2023-10-09T00:41:10;32.33;;;15.80;;
70467;SDS011;57934;51.532;7.684;2023-10-09T00:43:39;26.70;;;15.30;;
70467;SDS011;57934;51.532;7.684;2023-10-09T00:46:08;34.50;;;15.90;;
70467;SDS011;57934;51.532;7.684;2023-10-09T00:48:51;28.60;;;14.43;;
70467;SDS011;57934;51.532;7.684;2023-10-09T00:51:23;28.30;;;15.13;;
70467;SDS011;57934;51.532;7.684;2023-10-09T00:53:57;27.75;;;13.82;;
70467;SDS011;57934;51.532;7.684;2023-10-09T00:56:24;25.88;;;13.60;;
70467;SDS011;57934;51.532;7.684;2023-10-09T00:58:53;32.17;;;14.25;;
70467;SDS011;57934;51.532;7.684;2023-10-09T01:01:26;22.27;;;13.38;;
70467;SDS011;57934;51.532;7.684;2023-10-09T01:04:02;26.88;;;14.15;;
70467;SDS011;57934;51.532;7.684;2023-10-09T01:06:43;26.42;;;13.10;;
70467;SDS011;57934;51.532;7.684;2023-10-09T01:09:13;24.40;;;13.25;;
70467;SDS011;57934;51.532;7.684;2023-10-09T01:11:43;27.83;;;14.07;;
70467;SDS011;57934;51.532;7.684;2023-10-09T01:14:33;31.88;;;14.80;;
70467;SDS011;57934;51.532;7.684;2023-10-09T01:17:06;28.02;;;14.32;;
70467;SDS011;57934;51.532;7.684;2023-10-09T01:19:33;26.35;;;13.27;;
70467;SDS011;57934;51.532;7.684;2023-10-09T01:21:59;25.98;;;12.13;;
70467;SDS011;57934;51.532;7.684;2023-10-09T01:24:47;22.48;;;13.55;;
70467;SDS011;57934;51.532;7.684;2023-10-09T01:27:16;25.73;;;12.05;;
70467;SDS011;57934;51.532;7.684;2023-10-09T01:29:42;26.90;;;12.85;;
70467;SDS011;57934;51.532;7.684;2023-10-09T01:32:09;23.23;;;12.55;;
70467;SDS011;57934;51.532;7.684;2023-10-09T01:34:42;23.65;;;12.40;;
70467;SDS011;57934;51.532;7.684;2023-10-09T01:37:19;22.52;;;11.75;;
70467;SDS011;57934;51.532;7.684;2023-10-09T01:39:55;26.35;;;12.20;;
70467;SDS011;57934;51.532;7.684;2023-10-09T01:42:41;21.02;;;11.38;;
70467;SDS011;57934;51.532;7.684;2023-10-09T01:45:13;24.73;;;12.98;;
70467;SDS011;57934;51.532;7.684;2023-10-09T01:47:43;25.20;;;12.27;;
70467;SDS011;57934;51.532;7.684;2023-10-09T01:50:18;22.35;;;11.65;;
70467;SDS011;57934;51.532;7.684;2023-10-09T01:52:46;23.90;;;11.80;;
70467;SDS011;57934;51.532;7.684;2023-10-09T01:55:12;23.60;;;12.50;;
70467;SDS011;57934;51.532;7.684;2023-10-09T01:57:54;22.83;;;12.55;;
70467;SDS011;57934;51.532;7.684;2023-10-09T02:00:25;21.48;;;11.73;;
70467;SDS011;57934;51.532;7.684;2023-10-09T02:02:56;24.13;;;12.30;;
70467;SDS011;57934;51.532;7.684;2023-10-09T02:05:25;22.45;;;12.07;;
70467;SDS011;57934;51.532;7.684;2023-10-09T02:07:52;21.38;;;12.68;;
70467;SDS011;57934;51.532;7.684;2023-10-09T02:10:19;17.83;;;12.13;;
70467;SDS011;57934;51.532;7.684;2023-10-09T02:13:07;21.70;;;12.35;;
70467;SDS011;57934;51.532;7.684;2023-10-09T02:15:35;22.30;;;11.95;;
70467;SDS011;57934;51.532;7.684;2023-10-09T02:18:09;22.38;;;12.95;;
70467;SDS011;57934;51.532;7.684;2023-10-09T02:20:47;21.42;;;14.10;;
70467;SDS011;57934;51.532;7.684;2023-10-09T02:23:30;23.02;;;12.45;;
70467;SDS011;57934;51.532;7.684;2023-10-09T02:26:13;26.38;;;12.73;;
70467;SDS011;57934;51.532;7.684;2023-10-09T02:28:45;24.95;;;12.82;;
70467;SDS011;57934;51.532;7.684;2023-10-09T02:31:24;23.25;;;12.35;;
70467;SDS011;57934;51.532;7.684;2023-10-09T02:33:54;24.48;;;12.15;;
70467;SDS011;57934;51.532;7.684;2023-10-09T02:36:21;24.98;;;11.68;;
70467;SDS011;57934;51.532;7.684;2023-10-09T02:38:48;21.98;;;11.98;;
70467;SDS011;57934;51.532;7.684;2023-10-09T02:41:15;19.65;;;11.57;;
70467;SDS011;57934;51.532;7.684;2023-10-09T02:43:41;19.73;;;11.68;;
70467;SDS011;57934;51.532;7.684;2023-10-09T02:46:11;27.02;;;11.52;;
70467;SDS011;57934;51.532;7.684;2023-10-09T02:48:44;17.80;;;11.00;;
70467;SDS011;57934;51.532;7.684;2023-10-09T02:51:13;21.08;;;10.75;;
70467;SDS011;57934;51.532;7.684;2023-10-09T02:53:52;20.88;;;10.98;;
70467;SDS011;57934;51.532;7.684;2023-10-09T02:56:18;22.27;;;11.13;;
70467;SDS011;57934;51.532;7.684;2023-10-09T02:58:50;18.05;;;10.43;;
70467;SDS011;57934;51.532;7.684;2023-10-09T03:01:20;20.38;;;10.50;;
70467;SDS011;57934;51.532;7.684;2023-10-09T03:03:45;23.20;;;10.48;;
70467;SDS011;57934;51.532;7.684;2023-10-09T03:06:15;14.90;;;10.30;;
70467;SDS011;57934;51.532;7.684;2023-10-09T03:08:57;19.13;;;10.90;;
70467;SDS011;57934;51.532;7.684;2023-10-09T03:11:23;22.63;;;11.48;;
70467;SDS011;57934;51.532;7.684;2023-10-09T03:13:52;27.38;;;11.25;;
70467;SDS011;57934;51.532;7.684;2023-10-09T03:16:19;21.90;;;10.45;;
70467;SDS011;57934;51.532;7.684;2023-10-09T03:18:46;19.08;;;10.77;;
70467;SDS011;57934;51.532;7.684;2023-10-09T03:21:13;16.98;;;9.25;;
70467;SDS011;57934;51.532;7.684;2023-10-09T03:23:40;18.17;;;10.48;;
70467;SDS011;57934;51.532;7.684;2023-10-09T03:26:06;18.63;;;9.85;;
70467;SDS011;57934;51.532;7.684;2023-10-09T03:28:33;18.40;;;9.98;;
70467;SDS011;57934;51.532;7.684;2023-10-09T03:31:00;18.98;;;9.40;;
70467;SDS011;57934;51.532;7.684;2023-10-09T03:33:28;17.27;;;9.80;;
70467;SDS011;57934;51.532;7.684;2023-10-09T03:35:59;18.33;;;9.88;;
70467;SDS011;57934;51.532;7.684;2023-10-09T03:38:26;16.17;;;9.75;;
70467;SDS011;57934;51.532;7.684;2023-10-09T03:41:02;21.33;;;9.43;;
70467;SDS011;57934;51.532;7.684;2023-10-09T03:43:32;18.70;;;10.15;;
70467;SDS011;57934;51.532;7.684;2023-10-09T03:46:09;17.67;;;10.77;;
70467;SDS011;57934;51.532;7.684;2023-10-09T03:51:22;17.08;;;9.30;;
70467;SDS011;57934;51.532;7.684;2023-10-09T03:53:49;17.70;;;9.70;;
70467;SDS011;57934;51.532;7.684;2023-10-09T03:56:17;22.27;;;9.57;;
70467;SDS011;57934;51.532;7.684;2023-10-09T03:58:50;21.30;;;11.15;;
70467;SDS011;57934;51.532;7.684;2023-10-09T04:01:20;19.50;;;10.15;;
70467;SDS011;57934;51.532;7.684;2023-10-09T04:03:50;15.43;;;10.15;;
70467;SDS011;57934;51.532;7.684;2023-10-09T04:06:22;17.23;;;10.60;;
70467;SDS011;57934;51.532;7.684;2023-10-09T04:08:48;20.48;;;10.85;;
70467;SDS011;57934;51.532;7.684;2023-10-09T04:11:16;17.25;;;10.60;;
70467;SDS011;57934;51.532;7.684;2023-10-09T04:13:43;20.73;;;10.65;;
70467;SDS011;57934;51.532;7.684;2023-10-09T04:16:12;19.77;;;11.10;;
70467;SDS011;57934;51.532;7.684;2023-10-09T04:18:53;20.10;;;10.75;;
70467;SDS011;57934;51.532;7.684;2023-10-09T04:21:22;17.60;;;10.93;;
70467;SDS011;57934;51.532;7.684;2023-10-09T04:24:01;20.00;;;11.77;;
70467;SDS011;57934;51.532;7.684;2023-10-09T04:26:40;20.52;;;11.50;;
70467;SDS011;57934;51.532;7.684;2023-10-09T04:29:11;19.85;;;10.48;;
70467;SDS011;57934;51.532;7.684;2023-10-09T04:31:53;19.05;;;10.65;;
70467;SDS011;57934;51.532;7.684;2023-10-09T04:34:24;23.30;;;11.90;;
70467;SDS011;57934;51.532;7.684;2023-10-09T04:37:00;17.55;;;10.73;;
70467;SDS011;57934;51.532;7.684;2023-10-09T04:39:42;19.55;;;11.95;;
70467;SDS011;57934;51.532;7.684;2023-10-09T04:42:26;20.75;;;11.18;;
70467;SDS011;57934;51.532;7.684;2023-10-09T04:45:02;18.13;;;11.45;;
70467;SDS011;57934;51.532;7.684;2023-10-09T04:47:30;16.58;;;10.85;;
70467;SDS011;57934;51.532;7.684;2023-10-09T04:50:04;18.33;;;11.35;;
70467;SDS011;57934;51.532;7.684;2023-10-09T04:52:37;18.40;;;10.70;;
70467;SDS011;57934;51.532;7.684;2023-10-09T04:55:04;18.65;;;11.75;;
70467;SDS011;57934;51.532;7.684;2023-10-09T04:57:43;17.00;;;10.20;;
70467;SDS011;57934;51.532;7.684;2023-10-09T05:00:19;19.80;;;10.80;;
70467;SDS011;57934;51.532;7.684;2023-10-09T05:02:54;20.20;;;10.85;;
70467;SDS011;57934;51.532;7.684;2023-10-09T05:05:30;19.42;;;11.98;;
70467;SDS011;57934;51.532;7.684;2023-10-09T05:08:08;19.80;;;10.43;;
70467;SDS011;57934;51.532;7.684;2023-10-09T05:10:48;15.85;;;10.80;;
70467;SDS011;57934;51.532;7.684;2023-10-09T05:13:31;17.55;;;10.73;;
70467;SDS011;57934;51.532;7.684;2023-10-09T05:16:05;19.92;;;10.35;;
70467;SDS011;57934;51.532;7.684;2023-10-09T05:18:39;19.20;;;10.82;;
70467;SDS011;57934;51.532;7.684;2023-10-09T05:21:05;20.42;;;9.90;;
70467;SDS011;57934;51.532;7.684;2023-10-09T05:23:50;16.35;;;10.25;;
70467;SDS011;57934;51.532;7.684;2023-10-09T05:26:36;21.13;;;11.63;;
70467;SDS011;57934;51.532;7.684;2023-10-09T05:29:19;18.65;;;9.38;;
70467;SDS011;57934;51.532;7.684;2023-10-09T05:31:54;16.77;;;9.95;;
70467;SDS011;57934;51.532;7.684;2023-10-09T05:34:30;19.17;;;10.10;;
70467;SDS011;57934;51.532;7.684;2023-10-09T05:37:00;17.17;;;10.15;;
70467;SDS011;57934;51.532;7.684;2023-10-09T05:39:46;21.02;;;10.35;;
70467;SDS011;57934;51.532;7.684;2023-10-09T05:45:04;18.17;;;8.98;;
70467;SDS011;57934;51.532;7.684;2023-10-09T05:47:52;15.65;;;8.85;;
70467;SDS011;57934;51.532;7.684;2023-10-09T05:50:19;18.00;;;9.27;;
70467;SDS011;57934;51.532;7.684;2023-10-09T05:52:52;19.15;;;9.05;;
70467;SDS011;57934;51.532;7.684;2023-10-09T05:55:20;15.50;;;8.93;;
70467;SDS011;57934;51.532;7.684;2023-10-09T05:57:58;13.93;;;9.15;;
70467;SDS011;57934;51.532;7.684;2023-10-09T06:00:43;15.98;;;9.63;;
70467;SDS011;57934;51.532;7.684;2023-10-09T06:03:27;15.85;;;9.02;;
70467;SDS011;57934;51.532;7.684;2023-10-09T06:06:15;14.48;;;8.65;;
70467;SDS011;57934;51.532;7.684;2023-10-09T06:09:02;14.00;;;8.80;;
70467;SDS011;57934;51.532;7.684;2023-10-09T06:11:38;18.45;;;8.70;;
70467;SDS011;57934;51.532;7.684;2023-10-09T06:14:05;15.80;;;8.70;;
70467;SDS011;57934;51.532;7.684;2023-10-09T06:16:34;19.38;;;9.73;;
70467;SDS011;57934;51.532;7.684;2023-10-09T06:19:07;14.45;;;9.68;;
70467;SDS011;57934;51.532;7.684;2023-10-09T06:21:38;19.65;;;9.65;;
70467;SDS011;57934;51.532;7.684;2023-10-09T06:24:07;18.02;;;9.23;;
70467;SDS011;57934;51.532;7.684;2023-10-09T06:26:44;15.75;;;8.73;;
70467;SDS011;57934;51.532;7.684;2023-10-09T06:29:37;14.60;;;8.73;;
70467;SDS011;57934;51.532;7.684;2023-10-09T06:32:17;16.67;;;9.32;;
70467;SDS011;57934;51.532;7.684;2023-10-09T06:34:45;15.98;;;9.40;;
70467;SDS011;57934;51.532;7.684;2023-10-09T06:37:23;14.70;;;8.93;;
70467;SDS011;57934;51.532;7.684;2023-10-09T06:39:52;20.67;;;9.55;;
70467;SDS011;57934;51.532;7.684;2023-10-09T06:42:22;17.00;;;9.38;;
70467;SDS011;57934;51.532;7.684;2023-10-09T06:45:20;14.13;;;9.02;;
70467;SDS011;57934;51.532;7.684;2023-10-09T06:47:47;19.70;;;9.50;;
70467;SDS011;57934;51.532;7.684;2023-10-09T06:50:35;19.80;;;9.48;;
70467;SDS011;57934;51.532;7.684;2023-10-09T06:53:20;17.95;;;9.90;;
70467;SDS011;57934;51.532;7.684;2023-10-09T06:55:50;16.52;;;9.40;;
70467;SDS011;57934;51.532;7.684;2023-10-09T06:58:17;16.40;;;9.05;;
70467;SDS011;57934;51.532;7.684;2023-10-09T07:00:54;14.85;;;9.05;;
70467;SDS011;57934;51.532;7.684;2023-10-09T07:03:24;15.93;;;9.07;;
70467;SDS011;57934;51.532;7.684;2023-10-09T07:06:04;16.80;;;9.65;;
70467;SDS011;57934;51.532;7.684;2023-10-09T07:09:12;18.27;;;9.73;;
70467;SDS011;57934;51.532;7.684;2023-10-09T07:11:40;15.32;;;9.15;;
70467;SDS011;57934;51.532;7.684;2023-10-09T07:14:13;14.65;;;9.05;;
70467;SDS011;57934;51.532;7.684;2023-10-09T07:17:14;18.80;;;9.13;;
70467;SDS011;57934;51.532;7.684;2023-10-09T07:19:59;16.67;;;8.97;;
70467;SDS011;57934;51.532;7.684;2023-10-09T07:22:44;17.02;;;9.32;;
70467;SDS011;57934;51.532;7.684;2023-10-09T07:25:19;13.88;;;9.20;;
70467;SDS011;57934;51.532;7.684;2023-10-09T07:28:06;16.33;;;8.93;;
70467;SDS011;57934;51.532;7.684;2023-10-09T07:30:44;14.88;;;8.65;;
70467;SDS011;57934;51.532;7.684;2023-10-09T07:33:12;15.75;;;9.13;;
70467;SDS011;57934;51.532;7.684;2023-10-09T07:40:43;13.95;;;8.75;;
70467;SDS011;57934;51.532;7.684;2023-10-09T07:43:41;13.35;;;8.25;;
70467;SDS011;57934;51.532;7.684;2023-10-09T07:46:17;14.90;;;8.50;;
70467;SDS011;57934;51.532;7.684;2023-10-09T07:49:06;17.90;;;9.10;;
70467;SDS011;57934;51.532;7.684;2023-10-09T07:51:36;14.43;;;8.70;;
70467;SDS011;57934;51.532;7.684;2023-10-09T07:54:03;18.67;;;9.40;;
70467;SDS011;57934;51.532;7.684;2023-10-09T07:56:35;16.33;;;9.55;;
70467;SDS011;57934;51.532;7.684;2023-10-09T07:59:13;14.82;;;9.32;;
70467;SDS011;57934;51.532;7.684;2023-10-09T08:01:44;17.00;;;9.75;;
70467;SDS011;57934;51.532;7.684;2023-10-09T08:04:25;18.48;;;10.20;;
70467;SDS011;57934;51.532;7.684;2023-10-09T08:07:24;16.80;;;9.57;;
70467;SDS011;57934;51.532;7.684;2023-10-09T08:10:04;19.15;;;9.38;;
70467;SDS011;57934;51.532;7.684;2023-10-09T08:12:46;16.92;;;9.70;;
70467;SDS011;57934;51.532;7.684;2023-10-09T08:15:15;17.08;;;9.05;;
70467;SDS011;57934;51.532;7.684;2023-10-09T08:17:52;17.98;;;10.13;;
70467;SDS011;57934;51.532;7.684;2023-10-09T08:20:29;20.30;;;10.23;;
70467;SDS011;57934;51.532;7.684;2023-10-09T08:23:22;18.33;;;9.90;;
70467;SDS011;57934;51.532;7.684;2023-10-09T08:26:01;21.25;;;10.38;;
70467;SDS011;57934;51.532;7.684;2023-10-09T08:28:40;16.50;;;10.18;;
70467;SDS011;57934;51.532;7.684;2023-10-09T08:31:11;20.40;;;9.70;;
70467;SDS011;57934;51.532;7.684;2023-10-09T08:33:56;15.45;;;9.32;;
70467;SDS011;57934;51.532;7.684;2023-10-09T08:36:24;20.10;;;10.23;;
70467;SDS011;57934;51.532;7.684;2023-10-09T08:38:54;17.65;;;10.20;;
70467;SDS011;57934;51.532;7.684;2023-10-09T08:41:24;17.52;;;10.15;;
70467;SDS011;57934;51.532;7.684;2023-10-09T08:43:56;16.52;;;10.27;;
70467;SDS011;57934;51.532;7.684;2023-10-09T08:46:24;16.42;;;10.43;;
70467;SDS011;57934;51.532;7.684;2023-10-09T08:48:54;21.23;;;11.35;;
70467;SDS011;57934;51.532;7.684;2023-10-09T08:51:37;21.58;;;11.45;;
70467;SDS011;57934;51.532;7.684;2023-10-09T08:54:03;16.85;;;10.82;;
70467;SDS011;57934;51.532;7.684;2023-10-09T08:56:37;17.65;;;10.18;;
70467;SDS011;57934;51.532;7.684;2023-10-09T08:59:05;16.52;;;10.68;;
70467;SDS011;57934;51.532;7.684;2023-10-09T09:01:31;21.75;;;10.60;;
70467;SDS011;57934;51.532;7.684;2023-10-09T09:03:58;17.52;;;11.10;;
70467;SDS011;57934;51.532;7.684;2023-10-09T09:06:25;20.83;;;11.10;;
70467;SDS011;57934;51.532;7.684;2023-10-09T09:08:51;18.50;;;10.80;;
70467;SDS011;57934;51.532;7.684;2023-10-09T09:11:25;19.70;;;10.48;;
70467;SDS011;57934;51.532;7.684;2023-10-09T09:16:44;16.77;;;10.70;;
70467;SDS011;57934;51.532;7.684;2023-10-09T09:19:14;14.77;;;9.93;;
70467;SDS011;57934;51.532;7.684;2023-10-09T09:21:47;16.60;;;9.98;;
70467;SDS011;57934;51.532;7.684;2023-10-09T09:24:15;16.83;;;9.95;;
70467;SDS011;57934;51.532;7.684;2023-10-09T09:26:53;15.90;;;10.00;;
70467;SDS011;57934;51.532;7.684;2023-10-09T09:34:49;15.57;;;9.13;;
70467;SDS011;57934;51.532;7.684;2023-10-09T09:37:26;16.65;;;9.65;;
70467;SDS011;57934;51.532;7.684;2023-10-09T09:39:58;14.13;;;9.18;;
70467;SDS011;57934;51.532;7.684;2023-10-09T09:42:44;17.60;;;9.45;;
70467;SDS011;57934;51.532;7.684;2023-10-09T09:45:14;12.93;;;8.70;;
70467;SDS011;57934;51.532;7.684;2023-10-09T09:47:45;14.63;;;9.68;;
70467;SDS011;57934;51.532;7.684;2023-10-09T09:50:17;18.52;;;10.18;;
70467;SDS011;57934;51.532;7.684;2023-10-09T09:52:55;18.67;;;9.63;;
70467;SDS011;57934;51.532;7.684;2023-10-09T09:55:32;20.00;;;9.80;;
70467;SDS011;57934;51.532;7.684;2023-10-09T09:58:01;16.15;;;9.05;;
70467;SDS011;57934;51.532;7.684;2023-10-09T10:00:32;18.55;;;9.00;;
70467;SDS011;57934;51.532;7.684;2023-10-09T10:03:07;12.80;;;9.05;;
70467;SDS011;57934;51.532;7.684;2023-10-09T10:05:38;14.73;;;8.95;;
70467;SDS011;57934;51.532;7.684;2023-10-09T10:08:08;13.95;;;8.70;;
70467;SDS011;57934;51.532;7.684;2023-10-09T10:10:40;14.10;;;8.45;;
70467;SDS011;57934;51.532;7.684;2023-10-09T10:13:21;18.38;;;9.05;;
70467;SDS011;57934;51.532;7.684;2023-10-09T10:16:13;16.88;;;9.13;;
70467;SDS011;57934;51.532;7.684;2023-10-09T10:21:47;12.93;;;8.23;;
70467;SDS011;57934;51.532;7.684;2023-10-09T10:29:44;16.67;;;9.23;;
70467;SDS011;57934;51.532;7.684;2023-10-09T10:32:11;17.55;;;8.88;;
70467;SDS011;57934;51.532;7.684;2023-10-09T10:37:37;13.85;;;8.52;;
70467;SDS011;57934;51.532;7.684;2023-10-09T10:40:23;22.03;;;9.53;;
70467;SDS011;57934;51.532;7.684;2023-10-09T10:43:04;16.45;;;9.35;;
70467;SDS011;57934;51.532;7.684;2023-10-09T10:45:45;16.08;;;9.60;;
70467;SDS011;57934;51.532;7.684;2023-10-09T10:48:11;16.50;;;9.85;;
70467;SDS011;57934;51.532;7.684;2023-10-09T10:51:04;19.80;;;10.30;;
70467;SDS011;57934;51.532;7.684;2023-10-09T10:53:30;15.48;;;8.85;;
70467;SDS011;57934;51.532;7.684;2023-10-09T10:56:13;21.40;;;8.98;;
70467;SDS011;57934;51.532;7.684;2023-10-09T10:58:43;15.27;;;9.25;;
70467;SDS011;57934;51.532;7.684;2023-10-09T11:01:31;14.05;;;8.30;;
70467;SDS011;57934;51.532;7.684;2023-10-09T11:04:20;15.23;;;9.20;;
70467;SDS011;57934;51.532;7.684;2023-10-09T11:07:05;16.58;;;9.50;;
70467;SDS011;57934;51.532;7.684;2023-10-09T11:09:42;12.98;;;9.00;;
70467;SDS011;57934;51.532;7.684;2023-10-09T11:15:09;16.70;;;8.90;;
70467;SDS011;57934;51.532;7.684;2023-10-09T11:18:06;17.15;;;9.35;;
70467;SDS011;57934;51.532;7.684;2023-10-09T11:20:34;18.08;;;9.35;;
70467;SDS011;57934;51.532;7.684;2023-10-09T11:23:04;18.58;;;9.73;;
70467;SDS011;57934;51.532;7.684;2023-10-09T11:25:45;14.38;;;8.95;;
70467;SDS011;57934;51.532;7.684;2023-10-09T11:28:42;17.77;;;8.27;;
70467;SDS011;57934;51.532;7.684;2023-10-09T11:31:14;16.63;;;9.15;;
70467;SDS011;57934;51.532;7.684;2023-10-09T11:33:46;17.48;;;10.00;;
70467;SDS011;57934;51.532;7.684;2023-10-09T11:36:22;16.75;;;8.75;;
70467;SDS011;57934;51.532;7.684;2023-10-09T11:39:00;15.55;;;9.20;;
70467;SDS011;57934;51.532;7.684;2023-10-09T11:41:43;18.75;;;9.60;;
70467;SDS011;57934;51.532;7.684;2023-10-09T11:44:15;23.80;;;9.77;;
70467;SDS011;57934;51.532;7.684;2023-10-09T11:46:59;17.13;;;10.18;;
70467;SDS011;57934;51.532;7.684;2023-10-09T11:50:00;17.83;;;9.63;;
70467;SDS011;57934;51.532;7.684;2023-10-09T11:52:30;18.30;;;9.85;;
70467;SDS011;57934;51.532;7.684;2023-10-09T11:55:06;15.18;;;9.88;;
70467;SDS011;57934;51.532;7.684;2023-10-09T11:57:33;18.52;;;10.10;;
70467;SDS011;57934;51.532;7.684;2023-10-09T12:00:01;17.33;;;9.93;;
70467;SDS011;57934;51.532;7.684;2023-10-09T12:02:48;17.13;;;9.68;;
70467;SDS011;57934;51.532;7.684;2023-10-09T12:05:15;15.48;;;9.73;;
70467;SDS011;57934;51.532;7.684;2023-10-09T12:07:43;20.02;;;9.98;;
70467;SDS011;57934;51.532;7.684;2023-10-09T12:10:13;20.30;;;10.18;;
70467;SDS011;57934;51.532;7.684;2023-10-09T12:12:51;17.75;;;9.40;;
70467;SDS011;57934;51.532;7.684;2023-10-09T12:15:20;19.30;;;9.10;;
70467;SDS011;57934;51.532;7.684;2023-10-09T12:17:46;19.80;;;10.60;;
70467;SDS011;57934;51.532;7.684;2023-10-09T12:20:16;19.80;;;10.23;;
70467;SDS011;57934;51.532;7.684;2023-10-09T12:23:01;19.63;;;9.93;;
70467;SDS011;57934;51.532;7.684;2023-10-09T12:25:32;21.55;;;10.43;;
70467;SDS011;57934;51.532;7.684;2023-10-09T12:27:59;24.55;;;10.30;;
70467;SDS011;57934;51.532;7.684;2023-10-09T12:30:31;16.98;;;10.05;;
70467;SDS011;57934;51.532;7.684;2023-10-09T12:33:06;20.67;;;10.65;;
70467;SDS011;57934;51.532;7.684;2023-10-09T12:35:36;17.02;;;10.60;;
70467;SDS011;57934;51.532;7.684;2023-10-09T12:38:04;21.33;;;10.25;;
70467;SDS011;57934;51.532;7.684;2023-10-09T12:40:38;18.90;;;10.05;;
70467;SDS011;57934;51.532;7.684;2023-10-09T12:43:19;16.30;;;9.75;;
70467;SDS011;57934;51.532;7.684;2023-10-09T12:45:45;17.02;;;9.95;;
70467;SDS011;57934;51.532;7.684;2023-10-09T12:48:12;16.75;;;9.80;;
70467;SDS011;57934;51.532;7.684;2023-10-09T12:50:40;26.88;;;10.35;;
70467;SDS011;57934;51.532;7.684;2023-10-09T12:53:10;20.52;;;10.73;;
70467;SDS011;57934;51.532;7.684;2023-10-09T12:55:39;21.63;;;10.85;;
70467;SDS011;57934;51.532;7.684;2023-10-09T12:58:07;18.27;;;10.10;;
70467;SDS011;57934;51.532;7.684;2023-10-09T13:00:35;18.70;;;11.30;;
70467;SDS011;57934;51.532;7.684;2023-10-09T13:03:14;15.98;;;9.65;;
70467;SDS011;57934;51.532;7.684;2023-10-09T13:05:46;20.85;;;10.27;;
70467;SDS011;57934;51.532;7.684;2023-10-09T13:08:21;19.75;;;10.43;;
70467;SDS011;57934;51.532;7.684;2023-10-09T13:11:01;19.85;;;9.75;;
70467;SDS011;57934;51.532;7.684;2023-10-09T13:13:40;18.10;;;10.55;;
70467;SDS011;57934;51.532;7.684;2023-10-09T13:16:09;19.60;;;11.13;;
70467;SDS011;57934;51.532;7.684;2023-10-09T13:18:39;18.00;;;9.80;;
70467;SDS011;57934;51.532;7.684;2023-10-09T13:21:16;18.40;;;10.40;;
70467;SDS011;57934;51.532;7.684;2023-10-09T13:23:52;19.45;;;9.68;;
70467;SDS011;57934;51.532;7.684;2023-10-09T13:26:23;23.25;;;11.57;;
70467;SDS011;57934;51.532;7.684;2023-10-09T13:28:52;22.67;;;11.82;;
70467;SDS011;57934;51.532;7.684;2023-10-09T13:31:19;23.30;;;10.95;;
70467;SDS011;57934;51.532;7.684;2023-10-09T13:33:49;19.23;;;9.88;;
70467;SDS011;57934;51.532;7.684;2023-10-09T13:36:15;19.95;;;10.63;;
70467;SDS011;57934;51.532;7.684;2023-10-09T13:38:54;17.45;;;9.95;;
70467;SDS011;57934;51.532;7.684;2023-10-09T13:41:21;19.88;;;10.50;;
70467;SDS011;57934;51.532;7.684;2023-10-09T13:43:51;19.08;;;10.00;;
70467;SDS011;57934;51.532;7.684;2023-10-09T13:46:18;20.10;;;9.95;;
70467;SDS011;57934;51.532;7.684;2023-10-09T13:48:45;17.45;;;10.10;;
70467;SDS011;57934;51.532;7.684;2023-10-09T13:51:12;19.63;;;10.52;;
70467;SDS011;57934;51.532;7.684;2023-10-09T13:53:49;24.65;;;10.75;;
70467;SDS011;57934;51.532;7.684;2023-10-09T13:56:16;23.75;;;10.75;;
70467;SDS011;57934;51.532;7.684;2023-10-09T13:58:50;19.38;;;10.27;;
70467;SDS011;57934;51.532;7.684;2023-10-09T14:01:17;21.90;;;10.85;;
70467;SDS011;57934;51.532;7.684;2023-10-09T14:03:56;23.05;;;11.95;;
70467;SDS011;57934;51.532;7.684;2023-10-09T14:06:29;17.08;;;9.93;;
70467;SDS011;57934;51.532;7.684;2023-10-09T14:09:04;22.08;;;10.93;;
70467;SDS011;57934;51.532;7.684;2023-10-09T14:11:31;21.70;;;10.18;;
70467;SDS011;57934;51.532;7.684;2023-10-09T14:13:57;22.13;;;10.35;;
70467;SDS011;57934;51.532;7.684;2023-10-09T14:16:27;18.45;;;10.70;;
70467;SDS011;57934;51.532;7.684;2023-10-09T14:18:54;22.08;;;11.27;;
70467;SDS011;57934;51.532;7.684;2023-10-09T14:21:25;14.77;;;10.35;;
70467;SDS011;57934;51.532;7.684;2023-10-09T14:23:56;19.60;;;11.52;;
70467;SDS011;57934;51.532;7.684;2023-10-09T14:26:26;20.40;;;10.75;;
70467;SDS011;57934;51.532;7.684;2023-10-09T14:28:55;17.17;;;10.48;;
70467;SDS011;57934;51.532;7.684;2023-10-09T14:31:25;19.52;;;10.70;;
70467;SDS011;57934;51.532;7.684;2023-10-09T14:33:55;19.80;;;10.02;;
70467;SDS011;57934;51.532;7.684;2023-10-09T14:36:22;20.05;;;10.25;;
70467;SDS011;57934;51.532;7.684;2023-10-09T14:38:50;22.58;;;11.65;;
70467;SDS011;57934;51.532;7.684;2023-10-09T14:41:21;24.83;;;11.50;;
70467;SDS011;57934;51.532;7.684;2023-10-09T14:43:52;19.00;;;10.10;;
70467;SDS011;57934;51.532;7.684;2023-10-09T14:46:19;22.80;;;11.15;;
70467;SDS011;57934;51.532;7.684;2023-10-09T14:48:54;17.75;;;10.25;;
70467;SDS011;57934;51.532;7.684;2023-10-09T14:51:24;20.83;;;11.60;;
70467;SDS011;57934;51.532;7.684;2023-10-09T14:53:55;20.20;;;10.65;;
70467;SDS011;57934;51.532;7.684;2023-10-09T14:56:23;21.95;;;10.18;;
70467;SDS011;57934;51.532;7.684;2023-10-09T14:58:56;23.20;;;10.60;;
70467;SDS011;57934;51.532;7.684;2023-10-09T15:01:25;21.77;;;11.27;;
70467;SDS011;57934;51.532;7.684;2023-10-09T15:04:03;22.27;;;11.07;;
70467;SDS011;57934;51.532;7.684;2023-10-09T15:06:30;23.45;;;11.57;;
70467;SDS011;57934;51.532;7.684;2023-10-09T15:08:56;19.15;;;10.32;;
70467;SDS011;57934;51.532;7.684;2023-10-09T15:11:33;19.15;;;10.70;;
70467;SDS011;57934;51.532;7.684;2023-10-09T15:14:00;19.52;;;11.10;;
70467;SDS011;57934;51.532;7.684;2023-10-09T15:16:30;21.73;;;11.57;;
70467;SDS011;57934;51.532;7.684;2023-10-09T15:18:58;23.55;;;11.75;;
70467;SDS011;57934;51.532;7.684;2023-10-09T15:21:30;20.95;;;11.13;;
70467;SDS011;57934;51.532;7.684;2023-10-09T15:24:00;26.77;;;11.20;;
70467;SDS011;57934;51.532;7.684;2023-10-09T15:26:26;23.27;;;10.95;;
70467;SDS011;57934;51.532;7.684;2023-10-09T15:29:00;20.85;;;11.25;;
70467;SDS011;57934;51.532;7.684;2023-10-09T15:31:29;20.13;;;10.25;;
70467;SDS011;57934;51.532;7.684;2023-10-09T15:33:56;19.20;;;10.88;;
70467;SDS011;57934;51.532;7.684;2023-10-09T15:36:23;20.38;;;10.43;;